Time;durP1;ratioP1;P1;durP2;ratioP2;P2;SDS_P1;SDS_P2;PMS_P1;PMS_P2;Temp;Humidity;BMP_temperature;BMP_pressure;BME280_temperature;BME280_humidity;BME280_pressure;Samples;Min_cycle;Max_cycle;Signal;HPM_P1;HPM_P2
2023/09/04 00:01:23;;;;;;;3.93;3.53;;;18.20;1.00;;;;;;5159591;27;20190;-40
2023/09/04 00:03:49;;;;;;;4.03;3.73;;;18.20;1.00;;;;;;5159534;27;20235;-42
2023/09/04 00:06:14;;;;;;;3.33;3.03;;;18.20;1.00;;;;;;5159914;27;20250;-40
2023/09/04 00:08:40;;;;;;;3.77;3.47;;;18.20;1.00;;;;;;5160832;27;20247;-39
2023/09/04 00:11:05;;;;;;;4.40;4.00;;;18.20;1.00;;;;;;5160500;27;20191;-39
2023/09/04 00:13:31;;;;;;;3.30;2.83;;;18.20;1.00;;;;;;5159244;27;20210;-40
2023/09/04 00:15:57;;;;;;;3.70;3.40;;;18.20;1.00;;;;;;5160409;27;20206;-39
2023/09/04 00:18:23;;;;;;;3.70;3.40;;;18.20;1.00;;;;;;5160178;27;20174;-40
2023/09/04 00:20:49;;;;;;;5.60;3.47;;;18.20;1.00;;;;;;5159918;27;20235;-39
2023/09/04 00:23:14;;;;;;;3.60;3.30;;;18.20;1.00;;;;;;5159834;27;20805;-39
2023/09/04 00:25:40;;;;;;;4.00;3.60;;;18.20;99.90;;;;;;5160087;27;20224;-39
2023/09/04 00:28:06;;;;;;;4.10;3.70;;;18.20;99.90;;;;;;5158747;27;20196;-40
2023/09/04 00:30:31;;;;;;;4.07;3.40;;;18.10;99.90;;;;;;5159436;27;20202;-41
2023/09/04 00:32:57;;;;;;;3.70;3.40;;;18.10;1.00;;;;;;5157791;27;20237;-41
2023/09/04 00:35:23;;;;;;;6.80;3.50;;;18.10;99.90;;;;;;5157960;27;20214;-39
2023/09/04 00:37:49;;;;;;;3.30;3.00;;;18.10;1.00;;;;;;5157596;27;20186;-42
2023/09/04 00:40:15;;;;;;;3.70;3.40;;;18.10;99.90;;;;;;5157814;27;20487;-39
2023/09/04 00:42:41;;;;;;;4.30;3.80;;;18.00;1.00;;;;;;5157905;27;20426;-41
2023/09/04 00:45:11;;;;;;;4.03;3.70;;;17.90;1.00;;;;;;5156609;27;20407;-38
2023/09/04 00:47:40;;;;;;;4.33;3.73;;;17.90;1.00;;;;;;5158353;27;20533;-41
2023/09/04 00:50:09;;;;;;;3.20;2.90;;;17.90;1.00;;;;;;5158710;27;20435;-41
2023/09/04 00:52:35;;;;;;;4.13;3.73;;;17.90;1.00;;;;;;5158891;27;20473;-41
2023/09/04 00:55:03;;;;;;;3.77;3.37;;;17.90;1.00;;;;;;5140201;27;20432;-39
2023/09/04 00:57:29;;;;;;;4.03;3.63;;;17.90;1.00;;;;;;5158607;27;20496;-39
2023/09/04 00:59:55;;;;;;;3.90;3.57;;;17.90;1.00;;;;;;5140844;27;20833;-39
2023/09/04 01:02:20;;;;;;;4.17;3.77;;;17.90;1.00;;;;;;5158900;27;20412;-39
2023/09/04 01:04:46;;;;;;;3.87;3.33;;;17.80;1.00;;;;;;5139910;27;20190;-39
2023/09/04 01:07:12;;;;;;;4.67;4.03;;;17.80;1.00;;;;;;5158222;27;20683;-39
2023/09/04 01:09:37;;;;;;;5.10;4.10;;;17.80;1.00;;;;;;5158316;27;20473;-42
2023/09/04 01:12:11;;;;;;;3.30;2.77;;;17.80;1.00;;;;;;5140555;27;20214;-40
2023/09/04 01:14:39;;;;;;;4.10;3.70;;;17.80;1.00;;;;;;5140472;27;20173;-42
2023/09/04 01:17:05;;;;;;;5.00;3.50;;;17.80;1.00;;;;;;5140845;27;20430;-42
2023/09/04 01:19:32;;;;;;;3.30;3.00;;;17.80;1.00;;;;;;5158173;27;20654;-39
2023/09/04 01:21:57;;;;;;;4.50;3.30;;;17.80;1.00;;;;;;5158898;27;20695;-40
2023/09/04 01:24:23;;;;;;;6.87;3.77;;;17.80;1.00;;;;;;5159016;27;20419;-41
2023/09/04 01:27:05;;;;;;;5.30;2.90;;;17.70;1.00;;;;;;5159326;27;20185;-40
2023/09/04 01:29:34;;;;;;;4.20;3.80;;;17.80;1.00;;;;;;5157526;27;20181;-40
2023/09/04 01:32:06;;;;;;;3.47;3.17;;;17.70;99.90;;;;;;5158147;27;20475;-38
2023/09/04 01:34:39;;;;;;;4.27;3.80;;;17.70;99.90;;;;;;5139924;27;20434;-43
2023/09/04 01:37:05;;;;;;;3.63;3.20;;;17.70;1.00;;;;;;5136113;27;20464;-41
2023/09/04 01:39:31;;;;;;;4.17;3.77;;;17.70;1.00;;;;;;5136334;27;20436;-39
2023/09/04 01:41:57;;;;;;;3.83;3.37;;;17.70;99.90;;;;;;5137140;27;20575;-36
2023/09/04 01:44:23;;;;;;;4.20;3.70;;;17.70;99.90;;;;;;5137504;27;20443;-39
2023/09/04 01:46:48;;;;;;;8.90;3.40;;;17.70;1.00;;;;;;5137113;27;20553;-43
2023/09/04 01:49:14;;;;;;;4.97;3.93;;;17.70;1.00;;;;;;5135931;27;20711;-38
2023/09/04 01:51:40;;;;;;;3.70;3.07;;;17.70;99.90;;;;;;5137095;27;20351;-38
2023/09/04 01:54:05;;;;;;;4.10;3.70;;;17.70;1.00;;;;;;5136378;27;20258;-38
2023/09/04 01:56:31;;;;;;;4.60;3.67;;;17.70;1.00;;;;;;5137415;27;20179;-39
2023/09/04 01:58:57;;;;;;;5.23;3.37;;;17.60;99.90;;;;;;5135782;27;20237;-39
2023/09/04 02:01:23;;;;;;;3.53;3.23;;;17.50;1.00;;;;;;5136779;27;20531;-38
2023/09/04 02:03:58;;;;;;;3.83;3.20;;;17.50;1.00;;;;;;5137339;27;20430;-41
2023/09/04 02:06:26;;;;;;;3.10;2.80;;;17.50;1.00;;;;;;5137675;27;20182;-41
2023/09/04 02:08:51;;;;;;;3.40;3.10;;;17.40;1.00;;;;;;5137652;27;20808;-38
2023/09/04 02:11:17;;;;;;;4.10;3.07;;;17.50;1.00;;;;;;5137753;27;20419;-40
2023/09/04 02:14:07;;;;;;;4.30;3.90;;;17.50;1.00;;;;;;5137606;27;20642;-39
2023/09/04 02:16:33;;;;;;;5.27;3.10;;;17.50;1.00;;;;;;5137397;27;20179;-40
2023/09/04 02:18:59;;;;;;;4.50;3.47;;;17.40;1.00;;;;;;5137068;27;20427;-41
2023/09/04 02:21:24;;;;;;;3.40;3.10;;;17.50;1.00;;;;;;5137081;27;20179;-38
2023/09/04 02:23:50;;;;;;;3.97;3.60;;;17.50;1.00;;;;;;5136183;27;20171;-41
2023/09/04 02:26:16;;;;;;;3.47;3.17;;;17.40;1.00;;;;;;5136953;27;20266;-38
2023/09/04 02:34:29;;;;;;;3.73;3.43;;;17.40;1.00;;;;;;5140374;27;20900;-40
2023/09/04 02:36:54;;;;;;;5.40;3.17;;;17.40;1.00;;;;;;5155716;27;20580;-39
2023/09/04 02:39:20;;;;;;;3.67;3.37;;;17.30;1.00;;;;;;5157341;27;20185;-39
2023/09/04 02:41:46;;;;;;;3.70;3.03;;;17.30;1.00;;;;;;5157017;27;20273;-39
2023/09/04 02:44:11;;;;;;;3.73;3.43;;;17.30;1.00;;;;;;5156618;27;20281;-39
2023/09/04 02:46:37;;;;;;;3.30;3.00;;;17.30;1.00;;;;;;5138778;27;20186;-41
2023/09/04 02:49:03;;;;;;;3.70;3.40;;;17.20;1.00;;;;;;5157047;27;20200;-39
2023/09/04 02:51:28;;;;;;;3.83;3.53;;;17.20;1.00;;;;;;5157285;27;20215;-39
2023/09/04 02:53:54;;;;;;;4.50;3.57;;;17.20;1.00;;;;;;5156284;27;20448;-39
2023/09/04 02:56:19;;;;;;;4.10;3.70;;;17.20;1.00;;;;;;5157147;27;20190;-41
2023/09/04 02:58:45;;;;;;;3.70;3.40;;;17.20;1.00;;;;;;5156735;27;20194;-39
2023/09/04 03:01:15;;;;;;;4.13;3.73;;;17.20;1.00;;;;;;5157115;27;20210;-39
2023/09/04 03:03:41;;;;;;;4.70;3.50;;;17.20;1.00;;;;;;5156629;27;20553;-40
2023/09/04 03:06:10;;;;;;;3.60;3.10;;;17.10;1.00;;;;;;5156455;27;20441;-40
2023/09/04 03:08:38;;;;;;;3.60;3.30;;;17.10;1.00;;;;;;5157743;27;20183;-38
2023/09/04 03:11:09;;;;;;;3.83;3.43;;;17.10;1.00;;;;;;5156953;27;20423;-42
2023/09/04 03:13:35;;;;;;;4.07;3.37;;;17.20;1.00;;;;;;5156830;27;20467;-40
2023/09/04 03:16:01;;;;;;;4.57;4.17;;;17.20;1.00;;;;;;5156582;27;20773;-39
2023/09/04 03:18:26;;;;;;;4.87;3.90;;;17.10;1.00;;;;;;5155940;27;20404;-41
2023/09/04 03:20:52;;;;;;;4.63;3.10;;;17.10;5.10;;;;;;5155311;27;20277;-38
2023/09/04 03:23:18;;;;;;;4.53;3.57;;;17.10;41.20;;;;;;5155143;27;20280;-39
2023/09/04 03:25:44;;;;;;;3.83;3.43;;;17.10;21.40;;;;;;5153883;27;20592;-40
2023/09/04 03:28:09;;;;;;;3.40;3.10;;;17.10;1.00;;;;;;5154704;27;20214;-40
2023/09/04 03:30:35;;;;;;;3.93;3.23;;;17.10;17.30;;;;;;5154879;27;20414;-36
2023/09/04 03:33:01;;;;;;;3.70;3.40;;;17.10;48.50;;;;;;5154358;27;20635;-41
2023/09/04 03:35:26;;;;;;;7.03;2.97;;;17.00;16.20;;;;;;5153513;27;20296;-39
2023/09/04 03:37:52;;;;;;;3.93;3.40;;;17.00;19.60;;;;;;5153860;27;20583;-38
2023/09/04 03:40:23;;;;;;;8.03;4.00;;;17.00;15.10;;;;;;5154683;27;20193;-36
2023/09/04 03:42:49;;;;;;;5.83;5.23;;;17.00;15.80;;;;;;5153205;27;20454;-36
2023/09/04 03:45:15;;;;;;;7.23;4.80;;;17.00;1.00;;;;;;5155839;27;20782;-37
2023/09/04 03:47:42;;;;;;;6.00;5.40;;;16.90;1.00;;;;;;5158065;27;20857;-38
2023/09/04 03:50:10;;;;;;;4.50;4.10;;;16.90;42.80;;;;;;5141531;27;20500;-37
2023/09/04 03:52:36;;;;;;;5.20;4.70;;;16.90;11.70;;;;;;5160057;27;20529;-40
2023/09/04 03:55:02;;;;;;;5.03;4.27;;;16.90;1.00;;;;;;5158646;27;20444;-38
2023/09/04 03:57:27;;;;;;;4.83;4.33;;;16.90;1.00;;;;;;5160176;27;20242;-38
2023/09/04 03:59:53;;;;;;;8.53;4.10;;;16.90;1.00;;;;;;5160740;27;20486;-38
2023/09/04 04:02:19;;;;;;;4.17;3.87;;;16.90;1.00;;;;;;5159315;27;20204;-38
2023/09/04 04:04:45;;;;;;;4.70;4.10;;;16.80;1.00;;;;;;5158608;27;20190;-38
2023/09/04 04:07:11;;;;;;;4.50;4.10;;;16.80;1.00;;;;;;5157470;27;20453;-40
2023/09/04 04:09:36;;;;;;;4.80;4.30;;;16.80;1.00;;;;;;5159312;27;20179;-39
2023/09/04 04:12:02;;;;;;;7.70;4.90;;;16.80;1.00;;;;;;5158832;27;20600;-39
2023/09/04 04:14:29;;;;;;;4.50;4.10;;;16.80;1.00;;;;;;5158109;27;20689;-42
2023/09/04 04:16:54;;;;;;;4.57;4.17;;;16.70;1.00;;;;;;5157943;27;20436;-38
2023/09/04 04:19:21;;;;;;;4.90;4.50;;;16.70;1.00;;;;;;5139559;27;20448;-39
2023/09/04 04:27:33;;;;;;;5.30;4.13;;;16.70;1.00;;;;;;5157622;27;20479;-40
2023/09/04 04:29:59;;;;;;;4.40;4.00;;;16.70;1.00;;;;;;5159060;27;20261;-39
2023/09/04 04:32:25;;;;;;;4.77;3.73;;;16.70;1.00;;;;;;5158549;27;20233;-39
2023/09/04 04:34:50;;;;;;;4.13;3.73;;;16.60;99.90;;;;;;5141234;27;20178;-38
2023/09/04 04:37:16;;;;;;;4.10;3.70;;;16.60;1.00;;;;;;5159037;27;20196;-39
2023/09/04 04:39:41;;;;;;;4.23;3.83;;;16.60;1.00;;;;;;5159081;27;20202;-39
2023/09/04 04:42:07;;;;;;;4.03;3.60;;;16.60;1.00;;;;;;5157752;27;20516;-37
2023/09/04 04:44:33;;;;;;;4.67;3.90;;;16.70;1.00;;;;;;5156193;27;20294;-40
2023/09/04 04:46:58;;;;;;;4.47;4.07;;;16.70;1.00;;;;;;5156600;27;20278;-38
2023/09/04 04:49:24;;;;;;;4.63;3.67;;;16.70;99.90;;;;;;5158201;27;20245;-41
2023/09/04 04:51:50;;;;;;;5.77;4.70;;;16.70;99.90;;;;;;5157527;27;20598;-39
2023/09/04 04:54:16;;;;;;;4.27;3.87;;;16.70;99.90;;;;;;5137674;27;20428;-40
2023/09/04 04:56:42;;;;;;;4.67;4.10;;;16.70;99.90;;;;;;5156723;27;20204;-40
2023/09/04 04:59:08;;;;;;;5.70;4.60;;;16.70;99.90;;;;;;5155142;27;20794;-38
2023/09/04 05:01:34;;;;;;;3.83;3.50;;;16.70;99.90;;;;;;5157942;27;20186;-37
2023/09/04 05:04:00;;;;;;;9.63;4.30;;;16.70;99.90;;;;;;5157833;27;20436;-36
2023/09/04 05:06:26;;;;;;;4.23;3.83;;;16.70;99.90;;;;;;5158163;27;20458;-39
2023/09/04 05:08:52;;;;;;;4.70;4.30;;;16.70;99.90;;;;;;5156793;27;20419;-38
2023/09/04 05:11:18;;;;;;;4.40;4.00;;;16.80;99.90;;;;;;5156158;27;20511;-39
2023/09/04 05:13:44;;;;;;;4.30;3.90;;;16.80;99.90;;;;;;5155425;27;20409;-38
2023/09/04 05:16:09;;;;;;;3.83;3.53;;;16.80;99.90;;;;;;5156245;27;20438;-36
2023/09/04 05:18:35;;;;;;;4.50;4.10;;;16.80;99.90;;;;;;5156087;27;20175;-39
2023/09/04 05:21:04;;;;;;;5.00;4.47;;;16.80;99.90;;;;;;5136541;27;20194;-36
2023/09/04 05:23:30;;;;;;;4.70;4.30;;;16.80;80.70;;;;;;5155603;27;20179;-36
2023/09/04 05:25:56;;;;;;;4.43;4.03;;;16.90;1.00;;;;;;5155758;27;20427;-39
2023/09/04 05:28:21;;;;;;;3.90;3.50;;;16.90;2.80;;;;;;5155165;27;20191;-37
2023/09/04 05:30:47;;;;;;;4.30;3.90;;;17.00;2.90;;;;;;5154403;27;20182;-38
2023/09/04 05:33:13;;;;;;;4.50;4.10;;;17.00;1.00;;;;;;5154191;27;20241;-36
2023/09/04 05:35:38;;;;;;;4.60;4.20;;;17.00;1.00;;;;;;5155330;27;20175;-37
2023/09/04 05:38:04;;;;;;;5.33;4.83;;;17.00;1.00;;;;;;5158227;27;20174;-36
2023/09/04 05:40:30;;;;;;;4.40;4.00;;;17.00;1.00;;;;;;5156570;27;20212;-37
2023/09/04 05:42:57;;;;;;;7.10;4.70;;;17.00;2.00;;;;;;5155614;27;20609;-38
2023/09/04 05:45:23;;;;;;;4.63;4.23;;;17.00;42.70;;;;;;5154726;27;20243;-37
2023/09/04 05:47:49;;;;;;;4.60;4.13;;;17.10;91.50;;;;;;5155138;27;20423;-39
2023/09/04 05:50:15;;;;;;;4.33;3.80;;;17.20;99.30;;;;;;5155697;27;20560;-37
2023/09/04 05:52:41;;;;;;;4.33;3.93;;;17.30;23.00;;;;;;5155089;27;20459;-38
2023/09/04 05:55:07;;;;;;;5.23;4.73;;;17.40;1.00;;;;;;5153839;27;20416;-38
2023/09/04 05:57:34;;;;;;;5.83;4.80;;;17.50;1.00;;;;;;5135836;27;20427;-38
2023/09/04 06:00:00;;;;;;;6.20;4.80;;;17.60;1.00;;;;;;5155886;27;20447;-38
2023/09/04 06:02:26;;;;;;;5.93;5.33;;;17.70;1.00;;;;;;5137351;27;20431;-36
2023/09/04 06:04:53;;;;;;;5.17;4.77;;;17.80;1.00;;;;;;5156435;27;20213;-37
2023/09/04 06:07:18;;;;;;;6.90;5.80;;;17.80;1.00;;;;;;5156196;27;20672;-39
2023/09/04 06:09:44;;;;;;;5.57;5.07;;;18.00;1.00;;;;;;5138018;27;20435;-38
2023/09/04 06:12:11;;;;;;;6.90;5.43;;;18.20;1.00;;;;;;5157082;27;20218;-36
2023/09/04 06:14:37;;;;;;;6.10;5.33;;;18.40;99.90;;;;;;5156193;27;20175;-38
2023/09/04 06:17:03;;;;;;;5.77;5.17;;;18.50;21.30;;;;;;5155087;27;20412;-39
2023/09/04 06:19:29;;;;;;;7.33;5.90;;;18.70;1.00;;;;;;5155375;27;20521;-37
2023/09/04 06:21:55;;;;;;;6.50;5.87;;;18.80;99.90;;;;;;5151513;27;20437;-38
2023/09/04 06:24:21;;;;;;;6.73;6.13;;;18.90;87.50;;;;;;5150971;27;20397;-38
2023/09/04 06:26:46;;;;;;;6.73;6.20;;;19.10;1.00;;;;;;5133583;27;20468;-37
2023/09/04 06:29:13;;;;;;;7.23;5.47;;;19.10;99.90;;;;;;5153439;27;20437;-37
2023/09/04 06:31:40;;;;;;;6.50;5.90;;;19.20;99.90;;;;;;5153814;27;20174;-37
2023/09/04 06:34:05;;;;;;;6.63;6.00;;;19.20;99.90;;;;;;5153279;27;20801;-38
2023/09/04 06:36:31;;;;;;;7.03;6.37;;;19.30;1.00;;;;;;5152091;27;20492;-39
2023/09/04 06:38:57;;;;;;;7.43;6.40;;;19.40;1.00;;;;;;5153501;27;20188;-41
2023/09/04 06:41:23;;;;;;;7.30;6.70;;;19.40;1.00;;;;;;5154318;27;20186;-39
2023/09/04 06:43:49;;;;;;;6.37;5.73;;;19.60;99.90;;;;;;5151459;27;20625;-38
2023/09/04 06:46:15;;;;;;;6.37;5.77;;;19.70;99.90;;;;;;5150307;27;20408;-38
2023/09/04 06:48:40;;;;;;;5.60;5.10;;;19.70;99.90;;;;;;5151300;27;20190;-38
2023/09/04 06:51:07;;;;;;;6.20;5.43;;;19.80;99.90;;;;;;5151993;27;20202;-38
2023/09/04 06:53:32;;;;;;;6.57;5.80;;;19.90;99.90;;;;;;5152630;27;20632;-39
2023/09/04 06:55:58;;;;;;;6.30;5.70;;;20.00;99.90;;;;;;5152997;27;20480;-38
2023/09/04 06:58:26;;;;;;;5.93;5.43;;;20.00;1.00;;;;;;5152231;27;20554;-39
2023/09/04 07:00:53;;;;;;;6.20;5.60;;;20.00;1.00;;;;;;5154515;27;20213;-41
2023/09/04 07:03:18;;;;;;;6.13;5.53;;;20.10;1.00;;;;;;5155837;27;20427;-37
2023/09/04 07:05:44;;;;;;;6.20;5.60;;;20.20;1.00;;;;;;5155706;27;20871;-39
2023/09/04 07:08:10;;;;;;;6.20;5.60;;;20.30;1.00;;;;;;5151441;27;20270;-40
2023/09/04 07:10:36;;;;;;;5.40;5.00;;;20.50;99.90;;;;;;5152693;27;20390;-39
2023/09/04 07:13:02;;;;;;;6.83;6.23;;;20.60;99.90;;;;;;5152749;27;20210;-38
2023/09/04 07:15:28;;;;;;;7.37;5.33;;;20.80;99.90;;;;;;5151970;27;20259;-37
2023/09/04 07:17:54;;;;;;;6.57;5.80;;;21.00;99.90;;;;;;5151182;27;20412;-38
2023/09/04 07:20:19;;;;;;;6.07;5.30;;;21.20;1.00;;;;;;5152037;27;20423;-38
2023/09/04 07:22:45;;;;;;;5.33;4.90;;;21.40;1.00;;;;;;5154141;27;20419;-39
2023/09/04 07:25:11;;;;;;;5.50;5.10;;;21.50;1.00;;;;;;5156687;27;20269;-38
2023/09/04 07:27:37;;;;;;;6.70;6.00;;;21.70;1.00;;;;;;5157239;27;20234;-39
2023/09/04 07:30:03;;;;;;;5.70;5.30;;;21.90;1.00;;;;;;5158037;27;20178;-38
2023/09/04 07:32:29;;;;;;;6.27;5.63;;;22.00;99.90;;;;;;5157452;27;20478;-41
2023/09/04 07:34:56;;;;;;;7.07;6.37;;;22.10;99.90;;;;;;5137867;27;20828;-40
2023/09/04 07:37:26;;;;;;;5.70;5.20;;;22.30;99.90;;;;;;5156780;27;20354;-38
2023/09/04 07:39:53;;;;;;;5.60;5.17;;;22.40;99.90;;;;;;5156422;27;20431;-41
2023/09/04 07:42:22;;;;;;;5.50;5.00;;;22.70;99.90;;;;;;5157077;27;20425;-41
2023/09/04 07:44:48;;;;;;;5.73;5.23;;;22.90;99.90;;;;;;5158146;27;20424;-38
2023/09/04 07:47:14;;;;;;;5.70;5.20;;;23.10;99.90;;;;;;5155892;27;20438;-39
2023/09/04 07:49:39;;;;;;;4.83;4.43;;;23.40;99.90;;;;;;5138344;27;20282;-38
2023/09/04 07:52:05;;;;;;;5.57;5.10;;;23.90;99.90;;;;;;5157681;27;20548;-41
2023/09/04 07:54:31;;;;;;;6.40;5.00;;;24.50;99.90;;;;;;5157477;27;20202;-40
2023/09/04 07:56:59;;;;;;;6.53;5.37;;;25.10;83.70;;;;;;5158395;27;20447;-40
2023/09/04 07:59:24;;;;;;;5.50;4.70;;;25.70;5.10;;;;;;5157626;27;20557;-43
2023/09/04 08:01:50;;;;;;;4.70;4.30;;;26.30;1.00;;;;;;5157675;27;20415;-39
2023/09/04 08:04:16;;;;;;;5.57;5.07;;;26.80;1.00;;;;;;5138647;27;20178;-39
2023/09/04 08:06:42;;;;;;;5.60;5.10;;;27.50;1.00;;;;;;5156794;27;20193;-41
2023/09/04 08:09:07;;;;;;;5.10;4.63;;;28.10;1.00;;;;;;5156433;27;20183;-40
2023/09/04 08:11:34;;;;;;;5.47;5.00;;;28.60;1.00;;;;;;5155902;27;20336;-41
2023/09/04 08:14:00;;;;;;;4.93;4.53;;;29.30;1.00;;;;;;5156477;27;20667;-38
2023/09/04 08:16:26;;;;;;;5.10;4.70;;;29.70;1.00;;;;;;5154246;27;20436;-42
2023/09/04 08:18:51;;;;;;;5.20;4.53;;;30.20;1.00;;;;;;5152778;27;20187;-38
2023/09/04 08:21:17;;;;;;;4.70;4.27;;;30.60;1.00;;;;;;5153340;27;20643;-40
2023/09/04 08:23:43;;;;;;;6.17;5.67;;;30.90;1.00;;;;;;5151900;27;20441;-38
2023/09/04 08:26:12;;;;;;;5.20;4.70;;;31.10;1.00;;;;;;5151703;27;20643;-38
2023/09/04 08:28:38;;;;;;;5.50;4.90;;;31.50;1.00;;;;;;5135200;27;20175;-39
2023/09/04 08:31:05;;;;;;;5.40;4.93;;;31.70;1.00;;;;;;5155745;27;20435;-38
2023/09/04 08:33:30;;;;;;;4.70;4.30;;;31.50;1.00;;;;;;5155217;27;20463;-43
2023/09/04 08:35:56;;;;;;;5.07;4.67;;;31.80;1.00;;;;;;5153453;27;20522;-41
2023/09/04 08:38:22;;;;;;;4.30;4.00;;;32.30;1.00;;;;;;5155603;27;20535;-41
2023/09/04 08:40:48;;;;;;;5.57;5.10;;;32.30;1.00;;;;;;5155691;27;20197;-43
2023/09/04 08:43:16;;;;;;;4.57;4.27;;;32.60;1.00;;;;;;5137421;27;20201;-40
2023/09/04 08:45:42;;;;;;;5.77;4.90;;;32.80;1.00;;;;;;5138711;27;20744;-39
2023/09/04 08:48:08;;;;;;;5.20;4.80;;;32.80;1.00;;;;;;5157342;27;20519;-39
2023/09/04 08:50:35;;;;;;;4.97;4.53;;;32.30;1.00;;;;;;5138471;27;20840;-39
2023/09/04 08:53:01;;;;;;;4.70;4.33;;;32.20;1.00;;;;;;5155678;27;20466;-37
2023/09/04 08:55:27;;;;;;;5.63;5.10;;;31.50;1.00;;;;;;5137176;27;20412;-38
2023/09/04 08:57:54;;;;;;;4.83;4.40;;;31.10;1.00;;;;;;5153287;27;20201;-39
2023/09/04 09:00:19;;;;;;;5.50;5.10;;;31.60;1.00;;;;;;5151721;27;20190;-39
2023/09/04 09:02:46;;;;;;;5.67;5.17;;;32.30;1.00;;;;;;5133436;27;20828;-40
2023/09/04 09:05:13;;;;;;;5.63;5.13;;;32.30;1.00;;;;;;5155058;27;20193;-39
2023/09/04 09:07:41;;;;;;;5.37;4.97;;;31.90;1.00;;;;;;5135052;27;20374;-39
2023/09/04 09:10:09;;;;;;;5.50;4.80;;;31.20;1.00;;;;;;5152953;27;20492;-40
2023/09/04 09:12:35;;;;;;;5.80;4.97;;;30.30;1.00;;;;;;5154398;27;20852;-40
2023/09/04 09:15:01;;;;;;;5.83;5.33;;;29.70;1.00;;;;;;5136808;27;20531;-48
2023/09/04 09:17:27;;;;;;;5.13;4.73;;;29.10;1.00;;;;;;5154141;27;20983;-39
2023/09/04 09:19:53;;;;;;;4.93;4.53;;;29.00;1.00;;;;;;5155818;27;20442;-39
2023/09/04 09:22:22;;;;;;;5.03;4.63;;;29.20;1.00;;;;;;5153496;27;20318;-40
2023/09/04 09:24:50;;;;;;;6.23;5.73;;;30.10;1.00;;;;;;5152988;27;20461;-42
2023/09/04 09:27:21;;;;;;;5.70;5.20;;;30.80;1.00;;;;;;5155518;27;20566;-39
2023/09/04 09:29:48;;;;;;;4.80;4.40;;;31.20;1.00;;;;;;5155750;27;20432;-39
2023/09/04 09:32:18;;;;;;;5.73;5.23;;;30.90;1.00;;;;;;5154307;27;20957;-41
2023/09/04 09:34:50;;;;;;;5.13;4.73;;;30.50;1.00;;;;;;5136198;27;20666;-39
2023/09/04 09:37:17;;;;;;;5.43;5.03;;;30.40;1.00;;;;;;5136495;27;20697;-41
2023/09/04 09:39:43;;;;;;;5.40;5.00;;;30.60;1.00;;;;;;5152658;27;20428;-41
2023/09/04 09:42:09;;;;;;;4.50;4.10;;;31.10;1.00;;;;;;5133656;27;20432;-40
2023/09/04 09:44:35;;;;;;;5.07;4.70;;;31.40;1.00;;;;;;5152175;27;20685;-41
2023/09/04 09:47:01;;;;;;;5.10;4.70;;;31.20;1.00;;;;;;5153191;27;20791;-39
2023/09/04 09:49:27;;;;;;;7.93;5.50;;;30.60;1.00;;;;;;5154509;27;20162;-42
2023/09/04 09:51:56;;;;;;;5.40;5.00;;;30.40;1.00;;;;;;5137188;27;20218;-39
2023/09/04 09:54:40;;;;;;;5.27;4.87;;;30.40;1.00;;;;;;5154710;27;20821;-40
2023/09/04 09:57:14;;;;;;;5.03;4.47;;;30.40;1.00;;;;;;5151894;27;20581;-39
2023/09/04 09:59:46;;;;;;;5.50;5.10;;;30.40;1.00;;;;;;5133432;27;20535;-39
2023/09/04 10:02:22;;;;;;;5.00;4.60;;;30.70;1.00;;;;;;5152486;27;20832;-40
2023/09/04 10:04:48;;;;;;;5.63;5.03;;;31.60;1.00;;;;;;5153899;27;20511;-38
2023/09/04 10:07:36;;;;;;;4.40;4.10;;;32.40;1.00;;;;;;5154281;27;20514;-39
2023/09/04 10:10:04;;;;;;;5.63;5.23;;;32.60;1.00;;;;;;5151625;27;20452;-40
2023/09/04 10:12:43;;;;;;;5.13;4.73;;;32.90;1.00;;;;;;5154292;27;20464;-40
2023/09/04 10:15:10;;;;;;;5.20;4.70;;;33.60;1.00;;;;;;5134935;27;20455;-44
2023/09/04 10:17:37;;;;;;;5.10;4.70;;;34.10;1.00;;;;;;5137752;27;21029;-40
2023/09/04 10:20:05;;;;;;;5.10;4.70;;;34.60;1.00;;;;;;5154415;27;20407;-40
2023/09/04 10:22:37;;;;;;;5.07;4.67;;;35.90;1.00;;;;;;5156317;27;20383;-44
2023/09/04 10:25:09;;;;;;;4.83;4.40;;;36.40;1.00;;;;;;5154398;27;20397;-41
2023/09/04 10:27:40;;;;;;;5.20;4.70;;;37.20;1.00;;;;;;5155723;27;20540;-39
2023/09/04 10:30:07;;;;;;;4.70;4.27;;;38.10;1.00;;;;;;5138696;27;20427;-39
2023/09/04 10:32:34;;;;;;;4.60;4.30;;;37.80;1.00;;;;;;5155902;27;20571;-39
2023/09/04 10:35:01;;;;;;;4.93;4.53;;;36.90;1.00;;;;;;5155272;27;20803;-39
2023/09/04 10:37:29;;;;;;;5.00;4.60;;;36.40;1.00;;;;;;5138686;27;20379;-39
2023/09/04 10:39:55;;;;;;;4.27;3.87;;;36.40;1.00;;;;;;5156217;27;20805;-40
2023/09/04 10:42:23;;;;;;;4.13;3.83;;;36.20;1.00;;;;;;5154706;27;20506;-39
2023/09/04 10:44:53;;;;;;;4.87;4.37;;;36.10;1.00;;;;;;5155680;27;20422;-39
2023/09/04 10:47:19;;;;;;;4.47;4.07;;;36.50;1.00;;;;;;5154129;27;20489;-41
2023/09/04 10:49:45;;;;;;;4.67;4.27;;;37.00;1.00;;;;;;5154924;27;20517;-41
2023/09/04 10:52:12;;;;;;;4.80;4.40;;;37.50;1.00;;;;;;5135568;27;20535;-39
2023/09/04 10:54:38;;;;;;;4.67;4.30;;;37.40;1.00;;;;;;5135439;27;20531;-39
2023/09/04 10:57:07;;;;;;;4.73;4.33;;;37.00;1.00;;;;;;5138321;27;20675;-40
2023/09/04 10:59:59;;;;;;;4.87;4.40;;;37.60;1.00;;;;;;5139953;27;20446;-41
2023/09/04 11:02:28;;;;;;;4.63;4.33;;;38.30;1.00;;;;;;5140923;27;20450;-40
2023/09/04 11:04:55;;;;;;;6.20;3.90;;;38.90;1.00;;;;;;5157855;27;20414;-39
2023/09/04 11:07:20;;;;;;;4.77;4.37;;;39.60;1.00;;;;;;5154204;27;20589;-40
2023/09/04 11:10:00;;;;;;;4.37;4.07;;;40.00;1.00;;;;;;5158774;27;20454;-41
2023/09/04 11:12:26;;;;;;;5.00;4.63;;;40.30;1.00;;;;;;5141553;27;20225;-44
2023/09/04 11:14:54;;;;;;;5.10;4.70;;;40.80;1.00;;;;;;5159065;27;20499;-38
2023/09/04 11:17:42;;;;;;;4.40;4.10;;;40.70;1.00;;;;;;5158288;27;20504;-41
2023/09/04 11:20:14;;;;;;;5.10;4.70;;;40.50;1.00;;;;;;5158943;27;20527;-40
2023/09/04 11:22:47;;;;;;;4.67;4.37;;;40.70;1.00;;;;;;5157644;27;20408;-38
2023/09/04 11:25:16;;;;;;;4.43;4.13;;;40.10;1.00;;;;;;5156521;27;20408;-40
2023/09/04 11:27:46;;;;;;;5.13;4.73;;;40.20;1.00;;;;;;5153784;27;20467;-41
2023/09/04 11:30:14;;;;;;;4.20;3.80;;;40.70;1.00;;;;;;5154588;27;21055;-37
2023/09/04 11:32:40;;;;;;;4.40;4.00;;;41.50;1.00;;;;;;5156632;27;20467;-37
2023/09/04 11:40:53;;;;;;;5.13;4.83;;;41.50;1.00;;;;;;5137398;27;21698;-38
2023/09/04 11:46:43;;;;;;;3.93;3.63;;;42.30;1.00;;;;;;5140287;27;20285;-40
2023/09/04 11:54:56;;;;;;;4.87;4.47;;;42.60;1.00;;;;;;5134605;27;20504;-38
2023/09/04 11:57:22;;;;;;;5.27;4.87;;;42.50;1.00;;;;;;5137270;27;20547;-43
2023/09/04 11:59:48;;;;;;;5.10;4.70;;;42.80;1.00;;;;;;5137477;27;20850;-38
2023/09/04 12:02:13;;;;;;;4.93;4.30;;;43.00;1.00;;;;;;5136166;27;20432;-37
2023/09/04 12:04:39;;;;;;;4.63;4.10;;;42.50;1.00;;;;;;5117889;27;20183;-39
2023/09/04 12:07:05;;;;;;;4.70;4.40;;;42.50;1.00;;;;;;5116652;27;20191;-38
2023/09/04 12:15:30;;;;;;;4.17;3.87;;;41.00;1.00;;;;;;5135951;27;20499;-37
2023/09/04 12:17:58;;;;;;;4.27;3.97;;;40.80;1.00;;;;;;5118119;27;20231;-39
2023/09/04 12:20:23;;;;;;;5.27;4.23;;;41.90;1.00;;;;;;5136998;27;21010;-40
2023/09/04 12:22:56;;;;;;;4.30;3.90;;;42.50;1.00;;;;;;5136780;27;20597;-39
2023/09/04 12:31:13;;;;;;;4.47;3.97;;;42.90;1.00;;;;;;5131661;27;20845;-39
2023/09/04 12:33:40;;;;;;;3.70;3.50;;;43.00;1.00;;;;;;5134429;27;20573;-37
2023/09/04 12:36:08;;;;;;;4.60;4.20;;;43.20;1.00;;;;;;5133079;27;20677;-37
2023/09/04 12:38:37;;;;;;;4.00;3.70;;;43.80;1.00;;;;;;5136336;27;20449;-37
2023/09/04 12:41:03;;;;;;;4.07;3.77;;;44.00;1.00;;;;;;5135602;27;20501;-38
2023/09/04 12:43:29;;;;;;;3.80;3.60;;;43.70;1.00;;;;;;5136561;27;20468;-39
2023/09/04 12:45:55;;;;;;;4.50;4.03;;;43.30;1.00;;;;;;5135537;27;20490;-39
2023/09/04 12:48:22;;;;;;;4.53;4.10;;;43.00;1.00;;;;;;5135355;27;20420;-39
2023/09/04 12:50:49;;;;;;;4.20;3.90;;;42.50;1.00;;;;;;5134635;27;20269;-39
2023/09/04 12:53:14;;;;;;;3.80;3.50;;;41.90;1.00;;;;;;5133954;27;20493;-40
2023/09/04 12:55:40;;;;;;;4.13;3.83;;;41.50;1.00;;;;;;5133172;27;20432;-39
2023/09/04 12:58:11;;;;;;;4.27;3.73;;;41.80;1.00;;;;;;5133823;27;20461;-39
2023/09/04 13:00:38;;;;;;;3.73;3.43;;;42.10;1.00;;;;;;5113312;27;20700;-38
2023/09/04 13:03:04;;;;;;;3.80;3.50;;;42.40;1.00;;;;;;5115625;27;20452;-39
2023/09/04 13:05:31;;;;;;;3.87;3.57;;;42.90;1.00;;;;;;5132248;27;20567;-39
2023/09/04 13:07:56;;;;;;;4.27;3.97;;;42.60;1.00;;;;;;5133413;27;20511;-39
2023/09/04 13:10:22;;;;;;;4.10;3.77;;;42.70;1.00;;;;;;5129976;27;20528;-39
2023/09/04 13:12:48;;;;;;;3.90;3.60;;;42.70;1.00;;;;;;5129850;27;20191;-38
2023/09/04 13:15:14;;;;;;;4.00;3.70;;;42.50;1.00;;;;;;5113934;27;20518;-39
2023/09/04 13:17:41;;;;;;;4.23;3.93;;;42.40;1.00;;;;;;5114297;27;20183;-38
2023/09/04 13:20:10;;;;;;;4.73;4.33;;;42.70;1.00;;;;;;5134893;27;20428;-38
2023/09/04 13:22:36;;;;;;;4.23;3.93;;;43.10;1.00;;;;;;5132554;27;20769;-38
2023/09/04 13:25:02;;;;;;;4.00;3.70;;;43.20;1.00;;;;;;5132802;27;20424;-40
2023/09/04 13:27:28;;;;;;;4.13;3.83;;;43.40;1.00;;;;;;5132154;27;20579;-40
2023/09/04 13:29:54;;;;;;;4.20;3.90;;;43.90;1.00;;;;;;5113735;27;20485;-39
2023/09/04 13:32:19;;;;;;;4.23;3.93;;;43.70;1.00;;;;;;5133144;27;20191;-38